Time;durP1;ratioP1;P1;durP2;ratioP2;P2;SDS_P1;SDS_P2;PMS_P1;PMS_P2;Temp;Humidity;BMP_temperature;BMP_pressure;BME280_temperature;BME280_humidity;BME280_pressure;Samples;Min_cycle;Max_cycle;Signal;HPM_P1;HPM_P2
2022/10/17 00:00:08;;;;;;;1.60;1.30;;;17.20;99.90;;;;;;5043292;28;20471;-74
2022/10/17 00:02:34;;;;;;;2.08;1.10;;;17.20;99.90;;;;;;5042374;28;20052;-75
2022/10/17 00:05:01;;;;;;;1.83;1.40;;;17.20;99.90;;;;;;5043510;28;20053;-74
2022/10/17 00:07:28;;;;;;;1.25;1.15;;;17.20;99.90;;;;;;5042820;28;20049;-75
2022/10/17 00:09:56;;;;;;;2.65;1.50;;;17.20;99.90;;;;;;5027611;28;20048;-74
2022/10/17 00:12:23;;;;;;;1.15;1.00;;;17.20;99.90;;;;;;5027074;28;20067;-74
2022/10/17 00:14:49;;;;;;;1.20;1.10;;;17.10;99.90;;;;;;5025198;28;20080;-74
2022/10/17 00:17:16;;;;;;;1.65;1.10;;;17.10;99.90;;;;;;5044197;28;20065;-74
2022/10/17 00:19:43;;;;;;;1.23;1.00;;;17.10;99.90;;;;;;5044004;28;20045;-74
2022/10/17 00:22:10;;;;;;;1.95;1.33;;;17.10;99.90;;;;;;5026097;28;20124;-74
2022/10/17 00:24:36;;;;;;;2.10;1.13;;;17.10;99.90;;;;;;5024799;28;20065;-74
2022/10/17 00:27:03;;;;;;;2.00;1.23;;;17.10;99.90;;;;;;5043070;28;20579;-74
2022/10/17 00:29:30;;;;;;;1.85;1.05;;;17.10;99.90;;;;;;5009809;28;20059;-74
2022/10/17 00:31:57;;;;;;;1.52;1.10;;;17.10;99.90;;;;;;5040005;28;20112;-75
2022/10/17 00:34:24;;;;;;;1.65;1.08;;;17.10;99.90;;;;;;5005499;28;20140;-74
2022/10/17 00:36:51;;;;;;;2.03;1.35;;;17.10;99.90;;;;;;5025453;28;20056;-74
2022/10/17 00:39:19;;;;;;;1.92;1.10;;;17.10;99.90;;;;;;5044181;28;20048;-74
2022/10/17 00:41:46;;;;;;;1.63;1.40;;;17.10;99.90;;;;;;5022230;28;20057;-75
2022/10/17 00:44:29;;;;;;;2.67;1.48;;;17.10;99.90;;;;;;5040847;28;20053;-74
2022/10/17 00:46:56;;;;;;;2.33;1.33;;;17.10;99.90;;;;;;5043792;28;20144;-74
2022/10/17 00:49:23;;;;;;;1.90;1.05;;;17.10;99.90;;;;;;5041391;28;20515;-75
2022/10/17 00:51:53;;;;;;;2.05;1.33;;;17.10;99.90;;;;;;5025759;28;20049;-75
2022/10/17 00:54:22;;;;;;;1.73;1.10;;;17.10;99.90;;;;;;5025560;28;20045;-75
2022/10/17 00:56:48;;;;;;;2.13;1.20;;;17.10;99.90;;;;;;5026299;28;20381;-73
2022/10/17 00:59:16;;;;;;;2.65;1.20;;;17.10;99.90;;;;;;5043127;28;20049;-74
2022/10/17 01:01:50;;;;;;;1.63;1.05;;;17.10;99.90;;;;;;5009644;28;20064;-76
2022/10/17 01:04:17;;;;;;;1.35;1.10;;;17.10;99.90;;;;;;5024791;28;20440;-76
2022/10/17 01:06:44;;;;;;;1.27;1.10;;;17.10;99.90;;;;;;5042033;28;20041;-75
2022/10/17 01:09:10;;;;;;;1.77;1.15;;;17.10;99.90;;;;;;5042586;28;20045;-75
2022/10/17 01:11:40;;;;;;;2.35;1.30;;;17.00;99.90;;;;;;5042019;28;20041;-75
2022/10/17 01:14:13;;;;;;;2.17;1.20;;;17.00;99.90;;;;;;5043362;28;20390;-74
2022/10/17 01:16:40;;;;;;;;;;;17.00;99.90;;;;;;5043878;28;20044;-75
2022/10/17 01:19:34;;;;;;;0.77;0.77;;;17.00;99.90;;;;;;5038181;28;19951;-75
2022/10/17 01:22:08;;;;;;;1.33;1.05;;;17.00;99.90;;;;;;5042614;28;20052;-75
2022/10/17 01:24:53;;;;;;;3.60;1.10;;;17.00;99.90;;;;;;5008109;28;20533;-74
2022/10/17 01:27:33;;;;;;;1.52;0.93;;;17.00;99.90;;;;;;5038675;28;20042;-75
2022/10/17 01:30:18;;;;;;;1.35;0.93;;;16.90;99.90;;;;;;5036514;28;20057;-74
2022/10/17 01:32:48;;;;;;;1.63;1.00;;;16.90;99.90;;;;;;5038903;28;20041;-75
2022/10/17 01:35:36;;;;;;;0.80;0.80;;;16.80;99.90;;;;;;5023449;28;20063;-75
2022/10/17 01:38:27;;;;;;;1.77;0.98;;;16.80;99.90;;;;;;5011420;28;20052;-74
2022/10/17 01:41:40;;;;;;;2.40;1.38;;;16.70;99.90;;;;;;5043989;28;20045;-75
2022/10/17 01:44:17;;;;;;;1.52;1.00;;;16.70;99.90;;;;;;4985463;28;20497;-75
2022/10/17 01:46:46;;;;;;;1.33;0.88;;;16.70;99.90;;;;;;4969335;28;20593;-75
2022/10/17 01:49:13;;;;;;;2.40;1.10;;;16.60;99.90;;;;;;5005203;28;20583;-75
2022/10/17 01:51:42;;;;;;;1.67;1.00;;;16.60;99.90;;;;;;5028310;28;20044;-74
2022/10/17 01:54:18;;;;;;;2.00;1.00;;;16.60;99.90;;;;;;5024945;28;20523;-74
2022/10/17 01:56:45;;;;;;;1.58;1.10;;;16.60;99.90;;;;;;5029701;28;20045;-74
2022/10/17 01:59:14;;;;;;;1.35;0.80;;;16.70;99.90;;;;;;5028302;28;20049;-74
2022/10/17 02:01:41;;;;;;;1.13;0.82;;;16.70;99.90;;;;;;5028007;28;20055;-74
2022/10/17 02:04:08;;;;;;;1.05;0.63;;;16.70;99.90;;;;;;5025145;28;20045;-74
2022/10/17 02:06:35;;;;;;;1.75;1.10;;;16.80;99.90;;;;;;5027614;28;20071;-74
2022/10/17 02:09:18;;;;;;;2.13;0.90;;;16.80;99.90;;;;;;5028611;28;20037;-74
2022/10/17 02:11:57;;;;;;;1.65;0.90;;;16.80;99.90;;;;;;5012408;28;20045;-74
2022/10/17 02:14:54;;;;;;;1.13;0.60;;;16.80;99.90;;;;;;5044208;28;20049;-75
2022/10/17 02:17:58;;;;;;;0.88;0.70;;;16.90;99.90;;;;;;5024931;28;20811;-74
2022/10/17 02:20:48;;;;;;;1.98;1.02;;;16.80;99.90;;;;;;5044818;28;20057;-74
2022/10/17 02:23:58;;;;;;;1.08;0.80;;;16.80;99.90;;;;;;5041395;28;20405;-74
2022/10/17 02:26:32;;;;;;;2.25;1.02;;;16.80;99.90;;;;;;5045754;28;20053;-74
2022/10/17 02:29:06;;;;;;;2.47;0.88;;;16.80;99.90;;;;;;5029088;28;20475;-74
2022/10/17 02:32:01;;;;;;;1.98;1.05;;;16.90;99.90;;;;;;5043333;28;20049;-75
2022/10/17 02:34:34;;;;;;;1.33;1.00;;;16.90;99.90;;;;;;5026379;28;20051;-74
2022/10/17 02:37:02;;;;;;;;;;;16.80;99.90;;;;;;5012246;28;20045;-74
2022/10/17 02:39:29;;;;;;;1.05;0.80;;;16.80;99.90;;;;;;5044651;28;20032;-74
2022/10/17 02:41:56;;;;;;;1.90;0.80;;;16.80;99.90;;;;;;5027554;28;20063;-74
2022/10/17 02:44:23;;;;;;;3.17;1.40;;;16.80;99.90;;;;;;5024634;28;20045;-75
2022/10/17 02:46:58;;;;;;;3.72;1.30;;;16.80;99.90;;;;;;5027746;28;20085;-74
2022/10/17 02:49:30;;;;;;;1.08;0.98;;;16.80;99.90;;;;;;5011589;28;20510;-74
2022/10/17 02:52:01;;;;;;;1.77;1.00;;;16.80;99.90;;;;;;5026687;28;20065;-75
2022/10/17 02:54:34;;;;;;;0.80;0.60;;;16.80;99.90;;;;;;5042684;28;20049;-74
2022/10/17 02:57:13;;;;;;;0.82;0.65;;;16.80;99.90;;;;;;5045199;28;20075;-74
2022/10/17 02:59:40;;;;;;;1.15;0.70;;;16.70;99.90;;;;;;5028428;28;20062;-74
2022/10/17 03:02:07;;;;;;;0.65;0.50;;;16.70;99.90;;;;;;5010999;28;20055;-74
2022/10/17 03:04:34;;;;;;;0.70;0.70;;;16.70;99.90;;;;;;5024138;28;20052;-76
2022/10/17 03:07:01;;;;;;;1.02;0.80;;;16.70;99.90;;;;;;5010757;28;20143;-76
2022/10/17 03:09:28;;;;;;;0.88;0.68;;;16.70;99.90;;;;;;5043729;28;20784;-77
2022/10/17 03:11:55;;;;;;;1.13;0.68;;;16.70;99.90;;;;;;5031495;28;20485;-74
2022/10/17 03:14:22;;;;;;;0.77;0.60;;;16.70;99.90;;;;;;5051429;28;20041;-77
2022/10/17 03:16:49;;;;;;;0.57;0.43;;;16.70;99.90;;;;;;5033740;28;20049;-74
2022/10/17 03:19:15;;;;;;;0.68;0.60;;;16.70;99.90;;;;;;5049928;28;20052;-73
2022/10/17 03:21:42;;;;;;;0.85;0.50;;;16.70;99.90;;;;;;5017272;28;20067;-74
2022/10/17 03:24:09;;;;;;;0.77;0.50;;;16.70;99.90;;;;;;5051511;28;20059;-74
2022/10/17 03:26:36;;;;;;;1.08;0.98;;;16.60;99.90;;;;;;5047869;28;20357;-74
2022/10/17 03:29:03;;;;;;;0.80;0.63;;;16.60;99.90;;;;;;5017815;28;20077;-74
2022/10/17 03:31:29;;;;;;;1.10;0.63;;;16.60;99.90;;;;;;5033306;28;20053;-74
2022/10/17 03:33:56;;;;;;;1.00;0.77;;;16.60;99.90;;;;;;5049404;28;20041;-76
2022/10/17 03:36:24;;;;;;;0.77;0.50;;;16.50;99.90;;;;;;5049821;28;20063;-74
2022/10/17 03:38:54;;;;;;;1.55;0.88;;;16.50;99.90;;;;;;5051224;28;20603;-74
2022/10/17 03:41:21;;;;;;;1.45;0.70;;;16.40;99.90;;;;;;5050107;28;20053;-76
2022/10/17 03:43:48;;;;;;;1.42;0.98;;;16.40;99.90;;;;;;5047256;28;20041;-74
2022/10/17 03:46:14;;;;;;;1.15;0.70;;;16.40;99.90;;;;;;5046265;28;20047;-74
2022/10/17 03:48:41;;;;;;;0.70;0.63;;;16.40;99.90;;;;;;5050805;28;20049;-74
2022/10/17 03:51:09;;;;;;;2.00;0.68;;;16.40;99.90;;;;;;5051715;28;20063;-74
2022/10/17 03:53:35;;;;;;;2.15;0.80;;;16.40;99.90;;;;;;5051365;28;20407;-74
2022/10/17 03:56:10;;;;;;;1.35;0.73;;;16.50;99.90;;;;;;5051080;28;20053;-76
2022/10/17 03:58:37;;;;;;;1.52;0.90;;;16.50;99.90;;;;;;5051352;28;20140;-76
2022/10/17 04:01:08;;;;;;;1.10;0.70;;;16.50;99.90;;;;;;5049562;28;20094;-76
2022/10/17 04:03:35;;;;;;;0.70;0.65;;;16.50;99.90;;;;;;5016727;28;20045;-76
2022/10/17 04:06:02;;;;;;;0.98;0.60;;;16.50;99.90;;;;;;5049723;28;20143;-76
2022/10/17 04:08:29;;;;;;;1.05;0.63;;;16.50;99.90;;;;;;5051211;28;20048;-77
2022/10/17 04:11:19;;;;;;;2.13;0.80;;;16.60;99.90;;;;;;5050277;28;20267;-76
2022/10/17 04:13:46;;;;;;;3.25;1.10;;;16.50;99.90;;;;;;5029929;28;20136;-76
2022/10/17 04:16:14;;;;;;;1.67;0.95;;;16.50;99.90;;;;;;5029784;28;20049;-76
2022/10/17 04:18:42;;;;;;;1.05;0.55;;;16.60;99.90;;;;;;5032901;28;20423;-77
2022/10/17 04:21:08;;;;;;;1.25;0.80;;;16.60;99.90;;;;;;5050789;28;20557;-76
2022/10/17 04:23:35;;;;;;;1.15;0.60;;;16.60;99.90;;;;;;5042486;28;20045;-76
2022/10/17 04:26:02;;;;;;;2.10;0.90;;;16.60;99.90;;;;;;5046446;28;20052;-76
2022/10/17 04:28:29;;;;;;;2.55;0.70;;;16.60;99.90;;;;;;5046723;28;20476;-75
2022/10/17 04:31:01;;;;;;;2.03;1.10;;;16.60;99.90;;;;;;5027120;28;20057;-76
2022/10/17 04:33:27;;;;;;;1.17;0.85;;;16.60;99.90;;;;;;5025942;28;20037;-76
2022/10/17 04:36:01;;;;;;;1.75;0.77;;;16.60;99.90;;;;;;5013717;28;20052;-76
2022/10/17 04:38:28;;;;;;;1.67;0.60;;;16.60;99.90;;;;;;5011404;28;20227;-75
2022/10/17 04:41:01;;;;;;;1.13;0.73;;;16.60;99.90;;;;;;5060271;28;20060;-75
2022/10/17 04:43:29;;;;;;;;;;;16.60;99.90;;;;;;5034133;28;20535;-76
2022/10/17 04:46:00;;;;;;;0.93;0.60;;;16.60;99.90;;;;;;5046735;28;19925;-76
2022/10/17 04:48:27;;;;;;;0.63;0.57;;;16.60;99.90;;;;;;5023052;28;20602;-75
2022/10/17 04:51:02;;;;;;;1.52;0.80;;;16.60;99.90;;;;;;5011984;28;20037;-75
2022/10/17 04:53:30;;;;;;;1.23;0.80;;;16.60;99.90;;;;;;5023334;28;20432;-75
2022/10/17 04:55:57;;;;;;;1.08;0.80;;;16.60;99.90;;;;;;5008718;28;20045;-76
2022/10/17 04:58:23;;;;;;;0.43;0.43;;;16.60;99.90;;;;;;5023971;28;20049;-75
2022/10/17 05:00:50;;;;;;;0.98;0.75;;;16.60;99.90;;;;;;5043504;28;20075;-74
2022/10/17 05:03:17;;;;;;;2.55;1.23;;;16.60;99.90;;;;;;5041752;28;20045;-75
2022/10/17 05:05:44;;;;;;;1.30;0.55;;;16.50;99.90;;;;;;5040616;28;20507;-75
2022/10/17 05:08:11;;;;;;;1.30;0.80;;;16.50;99.90;;;;;;5024411;28;20156;-74
2022/10/17 05:10:42;;;;;;;1.20;0.60;;;16.50;99.90;;;;;;5036155;28;20050;-74
2022/10/17 05:13:09;;;;;;;1.20;0.60;;;16.50;99.90;;;;;;5017555;28;20049;-74
2022/10/17 05:15:36;;;;;;;1.77;0.90;;;16.50;99.90;;;;;;5044337;28;20049;-74
2022/10/17 05:18:04;;;;;;;0.88;0.60;;;16.50;99.90;;;;;;5039836;28;20057;-74
2022/10/17 05:20:31;;;;;;;1.45;0.75;;;16.50;99.90;;;;;;5040096;28;20133;-73
2022/10/17 05:22:59;;;;;;;1.33;1.05;;;16.40;99.90;;;;;;5033000;28;20585;-74
2022/10/17 05:25:25;;;;;;;1.33;0.82;;;16.40;99.90;;;;;;5042296;28;20052;-73
2022/10/17 05:27:52;;;;;;;2.08;1.13;;;16.40;99.90;;;;;;5039741;28;20503;-74
2022/10/17 05:30:19;;;;;;;1.75;0.88;;;16.30;99.90;;;;;;5036288;28;20045;-74
2022/10/17 05:32:46;;;;;;;2.20;0.88;;;16.30;99.90;;;;;;5023379;28;20041;-74
2022/10/17 05:35:13;;;;;;;2.22;1.05;;;16.30;99.90;;;;;;5042055;28;20049;-74
2022/10/17 05:37:39;;;;;;;1.35;0.77;;;16.20;99.90;;;;;;5043550;28;20044;-75
2022/10/17 05:40:07;;;;;;;1.33;0.60;;;16.20;99.90;;;;;;5040312;28;20061;-74
2022/10/17 05:42:33;;;;;;;1.52;0.68;;;16.20;99.90;;;;;;5025052;28;20124;-76
2022/10/17 05:45:00;;;;;;;2.22;0.65;;;16.20;99.90;;;;;;5042571;28;20055;-78
2022/10/17 05:47:27;;;;;;;1.15;0.70;;;16.10;99.90;;;;;;5035815;28;20090;-77
2022/10/17 05:49:55;;;;;;;2.75;1.98;;;16.10;99.90;;;;;;5030511;28;20060;-77
2022/10/17 05:52:22;;;;;;;1.90;0.80;;;16.00;99.90;;;;;;5040781;28;20055;-76
2022/10/17 05:54:49;;;;;;;3.00;0.75;;;15.90;99.90;;;;;;5025182;28;20049;-78
2022/10/17 05:57:16;;;;;;;2.13;0.90;;;15.90;99.90;;;;;;5030693;28;20048;-79
2022/10/17 05:59:43;;;;;;;0.65;0.57;;;15.90;99.90;;;;;;5050164;28;20521;-79
2022/10/17 06:02:11;;;;;;;0.73;0.50;;;15.90;99.90;;;;;;5008958;28;20061;-79
2022/10/17 06:04:44;;;;;;;1.00;0.70;;;15.90;99.90;;;;;;5040280;28;20106;-79
2022/10/17 06:07:11;;;;;;;0.47;0.40;;;15.90;99.90;;;;;;5038737;28;20436;-79
2022/10/17 06:09:38;;;;;;;0.68;0.57;;;15.90;99.90;;;;;;5045039;28;20040;-79
2022/10/17 06:12:06;;;;;;;1.50;0.80;;;15.80;99.90;;;;;;5024176;28;20162;-79
2022/10/17 06:14:33;;;;;;;0.57;0.40;;;15.80;99.90;;;;;;5044084;28;20056;-82
2022/10/17 06:17:01;;;;;;;1.25;0.73;;;15.80;99.90;;;;;;5066152;28;20800;-84
2022/10/17 06:19:28;;;;;;;1.02;0.60;;;15.80;99.90;;;;;;5026197;28;20055;-82
2022/10/17 06:21:55;;;;;;;1.02;0.60;;;15.80;99.90;;;;;;5036335;28;20056;-80
2022/10/17 06:24:22;;;;;;;0.70;0.50;;;15.70;99.90;;;;;;5029346;28;20400;-83
2022/10/17 06:26:50;;;;;;;0.77;0.60;;;15.70;99.90;;;;;;5038907;28;20664;-81
2022/10/17 06:29:17;;;;;;;2.75;1.17;;;15.60;99.90;;;;;;5022621;28;20400;-81
2022/10/17 06:31:44;;;;;;;1.50;0.90;;;15.60;99.90;;;;;;5042790;28;20040;-82
2022/10/17 06:34:11;;;;;;;1.20;0.80;;;15.50;99.90;;;;;;5022693;28;20053;-86
2022/10/17 06:36:38;;;;;;;1.42;0.60;;;15.60;99.90;;;;;;5034822;28;20044;-86
2022/10/17 06:39:05;;;;;;;0.70;0.55;;;15.60;99.90;;;;;;5037164;28;20049;-83
2022/10/17 06:41:34;;;;;;;1.38;0.70;;;15.60;99.90;;;;;;5013088;28;20048;-81
2022/10/17 06:44:07;;;;;;;0.60;0.52;;;15.50;99.90;;;;;;5008841;28;20130;-81
2022/10/17 06:46:34;;;;;;;0.73;0.45;;;15.50;99.90;;;;;;5008577;28;20041;-80
2022/10/17 06:49:01;;;;;;;0.65;0.50;;;15.50;99.90;;;;;;5033887;28;20073;-80
2022/10/17 06:51:28;;;;;;;1.42;0.55;;;15.50;99.90;;;;;;5031661;28;20079;-79
2022/10/17 06:53:57;;;;;;;0.50;0.50;;;15.50;99.90;;;;;;5042602;28;20057;-81
2022/10/17 06:56:24;;;;;;;0.57;0.50;;;15.50;99.90;;;;;;5023718;28;20052;-80
2022/10/17 06:58:51;;;;;;;1.13;0.32;;;15.50;99.90;;;;;;5007146;28;20067;-80
2022/10/17 07:01:18;;;;;;;0.40;0.40;;;15.50;99.90;;;;;;5044889;28;20144;-80
2022/10/17 07:03:47;;;;;;;0.60;0.55;;;15.50;99.90;;;;;;5005889;28;20046;-79
2022/10/17 07:06:14;;;;;;;0.38;0.32;;;15.50;99.90;;;;;;5019839;28;20056;-78
2022/10/17 07:08:43;;;;;;;0.50;0.50;;;15.40;99.90;;;;;;5022782;28;20560;-78
2022/10/17 07:11:12;;;;;;;0.52;0.40;;;15.40;99.90;;;;;;5020338;28;20048;-78
2022/10/17 07:13:41;;;;;;;0.88;0.70;;;15.30;99.90;;;;;;5050211;28;20131;-78
2022/10/17 07:16:08;;;;;;;0.47;0.40;;;15.30;99.90;;;;;;5012159;28;20045;-78
2022/10/17 07:18:35;;;;;;;0.32;0.30;;;15.20;99.90;;;;;;5015121;28;20048;-78
2022/10/17 07:21:02;;;;;;;0.70;0.50;;;15.20;99.90;;;;;;5053692;28;20064;-78
2022/10/17 07:23:29;;;;;;;0.98;0.50;;;15.20;99.90;;;;;;5036229;28;20060;-78
2022/10/17 07:26:00;;;;;;;0.68;0.40;;;15.20;99.90;;;;;;5020535;28;20052;-77
2022/10/17 07:28:27;;;;;;;0.45;0.38;;;15.20;99.90;;;;;;5049976;28;20052;-77
2022/10/17 07:30:55;;;;;;;0.32;0.32;;;15.20;99.90;;;;;;5056839;28;20659;-78
2022/10/17 07:33:22;;;;;;;0.50;0.32;;;15.20;99.90;;;;;;5048676;28;20045;-77
2022/10/17 07:35:51;;;;;;;0.82;0.50;;;15.20;99.90;;;;;;5032094;28;20112;-77
2022/10/17 07:38:17;;;;;;;0.70;0.30;;;15.20;99.90;;;;;;5008694;28;20049;-76
2022/10/17 07:40:44;;;;;;;0.43;0.30;;;15.20;99.90;;;;;;5017347;28;20050;-77
2022/10/17 07:43:12;;;;;;;0.65;0.40;;;15.20;99.90;;;;;;5019806;28;20139;-76
2022/10/17 07:45:40;;;;;;;1.20;0.57;;;15.20;99.90;;;;;;5056445;28;20044;-77
2022/10/17 07:48:06;;;;;;;0.88;0.40;;;15.30;99.90;;;;;;5028013;28;20059;-77
2022/10/17 07:50:33;;;;;;;0.63;0.47;;;15.30;99.90;;;;;;4999584;28;20439;-79
2022/10/17 07:53:00;;;;;;;0.75;0.45;;;15.30;99.90;;;;;;5024864;28;20072;-79
2022/10/17 07:55:28;;;;;;;0.77;0.40;;;15.30;99.90;;;;;;5017207;28;20054;-80
2022/10/17 07:57:55;;;;;;;0.45;0.30;;;15.40;99.90;;;;;;5003531;28;20057;-79
2022/10/17 08:00:22;;;;;;;0.65;0.47;;;15.40;99.90;;;;;;5005354;28;20057;-79
2022/10/17 08:02:49;;;;;;;1.80;0.47;;;15.40;99.90;;;;;;5041038;28;20048;-78
2022/10/17 08:05:16;;;;;;;1.02;0.40;;;15.40;99.90;;;;;;5006076;28;20049;-79
2022/10/17 08:07:43;;;;;;;1.38;0.60;;;15.50;99.90;;;;;;5000798;28;20084;-79
2022/10/17 08:10:11;;;;;;;1.75;0.90;;;15.50;99.90;;;;;;5038432;28;20124;-78
2022/10/17 08:12:38;;;;;;;1.08;0.50;;;15.50;99.90;;;;;;5009177;28;20056;-78
2022/10/17 08:15:06;;;;;;;0.98;0.52;;;15.50;99.90;;;;;;5042058;28;20499;-77
2022/10/17 08:17:37;;;;;;;0.95;0.50;;;15.60;99.90;;;;;;5033579;28;20068;-78
2022/10/17 08:20:04;;;;;;;1.73;0.52;;;15.60;99.90;;;;;;5030900;28;20203;-77
2022/10/17 08:22:31;;;;;;;0.73;0.40;;;15.70;99.90;;;;;;5008746;28;20046;-77
2022/10/17 08:24:59;;;;;;;0.50;0.50;;;15.60;99.90;;;;;;5023743;28;20135;-78
2022/10/17 08:27:27;;;;;;;0.45;0.43;;;15.70;99.90;;;;;;5024611;28;20057;-77
2022/10/17 08:29:54;;;;;;;1.20;0.50;;;15.70;99.90;;;;;;5014699;28;20080;-78
2022/10/17 08:32:23;;;;;;;0.43;0.43;;;15.80;99.90;;;;;;4995634;28;20499;-76
2022/10/17 08:34:51;;;;;;;1.58;0.80;;;15.80;99.90;;;;;;5007425;28;20374;-76
2022/10/17 08:37:18;;;;;;;1.30;0.63;;;15.80;99.90;;;;;;4991536;28;20520;-76
2022/10/17 08:39:44;;;;;;;1.23;0.73;;;15.90;99.90;;;;;;5034307;28;20437;-76
2022/10/17 08:42:39;;;;;;;0.82;0.60;;;15.90;99.90;;;;;;5043657;28;20065;-76
2022/10/17 08:45:38;;;;;;;0.68;0.43;;;15.90;99.90;;;;;;5041026;28;20404;-76
2022/10/17 08:48:10;;;;;;;1.17;0.60;;;16.00;99.90;;;;;;5026519;28;20742;-76
2022/10/17 08:51:02;;;;;;;1.20;0.60;;;16.10;99.90;;;;;;5026637;28;20458;-76
2022/10/17 08:53:34;;;;;;;1.27;0.75;;;16.10;99.90;;;;;;5028972;28;20056;-76
2022/10/17 08:56:10;;;;;;;1.20;0.50;;;16.20;99.90;;;;;;5030849;28;20053;-76
2022/10/17 08:58:50;;;;;;;1.52;0.57;;;16.20;99.90;;;;;;5033105;28;20057;-76
2022/10/17 09:01:43;;;;;;;1.30;0.70;;;16.30;99.90;;;;;;5047324;28;20049;-76
2022/10/17 09:04:28;;;;;;;1.75;0.77;;;16.40;99.90;;;;;;5041044;28;20049;-76
2022/10/17 09:07:01;;;;;;;2.15;0.98;;;16.40;99.90;;;;;;5027032;28;20157;-76
2022/10/17 09:09:53;;;;;;;0.65;0.47;;;16.50;99.90;;;;;;5048338;28;20460;-75
2022/10/17 09:12:27;;;;;;;0.43;0.43;;;16.50;99.90;;;;;;5044194;28;20148;-76
2022/10/17 09:15:04;;;;;;;0.82;0.47;;;16.60;99.90;;;;;;5022699;28;20053;-75
2022/10/17 09:17:50;;;;;;;1.70;0.70;;;16.60;99.90;;;;;;5025569;28;20386;-75
2022/10/17 09:20:20;;;;;;;2.13;0.80;;;16.60;99.90;;;;;;5038426;28;20056;-75
2022/10/17 09:22:59;;;;;;;3.13;1.10;;;16.60;99.90;;;;;;5025089;28;20145;-75
2022/10/17 09:25:26;;;;;;;1.02;0.60;;;16.70;99.90;;;;;;5026563;28;20106;-76
2022/10/17 09:28:03;;;;;;;1.13;0.73;;;16.70;99.90;;;;;;5009551;28;20807;-75
2022/10/17 09:30:43;;;;;;;2.05;0.77;;;16.80;99.90;;;;;;5025331;28;20049;-75
2022/10/17 09:33:19;;;;;;;2.50;1.00;;;16.70;99.90;;;;;;5034789;28;20110;-75
2022/10/17 09:36:24;;;;;;;1.83;0.80;;;16.80;99.90;;;;;;5045610;28;20396;-75
2022/10/17 09:38:53;;;;;;;2.70;0.80;;;16.80;99.90;;;;;;5045175;28;20259;-75
2022/10/17 09:41:32;;;;;;;1.70;0.75;;;16.80;99.90;;;;;;5043985;28;20045;-75
2022/10/17 09:44:16;;;;;;;2.65;0.88;;;16.80;99.90;;;;;;5022127;28;20496;-75
2022/10/17 09:46:49;;;;;;;1.80;0.90;;;16.70;99.90;;;;;;5023254;28;20150;-76
2022/10/17 09:49:19;;;;;;;;;;;16.80;99.90;;;;;;5009903;28;20496;-76
2022/10/17 09:51:47;;;;;;;3.03;1.35;;;16.70;99.90;;;;;;5008746;28;19937;-76
2022/10/17 09:54:20;;;;;;;2.97;1.20;;;16.60;99.90;;;;;;5025165;28;20540;-75
2022/10/17 09:57:05;;;;;;;3.72;1.58;;;16.60;99.90;;;;;;5009223;28;20053;-76
2022/10/17 09:59:37;;;;;;;6.07;1.83;;;16.60;99.90;;;;;;5005854;28;20871;-76
2022/10/17 10:02:11;;;;;;;3.40;1.73;;;16.60;99.90;;;;;;5021581;28;20061;-76
2022/10/17 10:04:59;;;;;;;4.32;1.55;;;16.60;99.90;;;;;;5021390;28;20132;-75
2022/10/17 10:07:32;;;;;;;;;;;16.70;99.90;;;;;;5007136;28;20457;-76
2022/10/17 10:09:59;;;;;;;2.00;0.80;;;16.70;99.90;;;;;;5045559;28;19944;-76
2022/10/17 10:12:31;;;;;;;5.18;1.55;;;16.90;99.90;;;;;;5008438;28;20393;-76
2022/10/17 10:14:58;;;;;;;3.40;1.52;;;17.00;99.90;;;;;;5038651;28;20100;-75
2022/10/17 10:17:40;;;;;;;2.35;1.05;;;17.00;99.90;;;;;;5008421;28;20053;-75
2022/10/17 10:20:45;;;;;;;4.05;1.40;;;17.00;99.90;;;;;;5018181;28;20091;-76
2022/10/17 10:23:17;;;;;;;4.22;1.30;;;17.10;99.90;;;;;;5001141;28;20098;-75
2022/10/17 10:25:57;;;;;;;3.45;1.30;;;17.10;99.90;;;;;;5036473;28;20332;-75
2022/10/17 10:28:26;;;;;;;5.60;1.55;;;17.20;99.90;;;;;;5025174;28;20135;-74
2022/10/17 10:30:53;;;;;;;3.42;1.20;;;17.20;99.90;;;;;;5004864;28;20049;-76
2022/10/17 10:33:21;;;;;;;1.63;0.95;;;17.30;99.90;;;;;;5033882;28;20049;-75
2022/10/17 10:36:06;;;;;;;3.38;1.45;;;17.40;99.90;;;;;;5028147;28;20049;-75
2022/10/17 10:38:33;;;;;;;2.08;1.05;;;17.60;99.90;;;;;;5026358;28;20534;-75
2022/10/17 10:41:07;;;;;;;4.18;1.30;;;17.70;99.90;;;;;;5025139;28;20396;-75
2022/10/17 10:43:45;;;;;;;3.25;1.38;;;17.80;99.90;;;;;;5021004;28;20078;-75
2022/10/17 10:46:20;;;;;;;3.25;1.27;;;17.90;99.90;;;;;;5021996;28;20131;-74
2022/10/17 10:48:52;;;;;;;5.40;1.70;;;18.00;99.90;;;;;;5040703;28;20057;-74
2022/10/17 10:51:26;;;;;;;5.07;1.77;;;18.00;99.90;;;;;;5036075;28;20044;-75
2022/10/17 10:54:08;;;;;;;4.22;1.33;;;17.90;99.90;;;;;;5017359;28;20049;-75
2022/10/17 10:56:46;;;;;;;4.43;1.65;;;18.00;99.90;;;;;;5039081;28;20479;-74
2022/10/17 10:59:42;;;;;;;4.85;1.67;;;18.00;99.90;;;;;;5007017;28;20075;-74
2022/10/17 11:02:23;;;;;;;4.05;1.30;;;18.00;99.90;;;;;;5020886;28;20705;-74
2022/10/17 11:05:14;;;;;;;4.85;1.35;;;18.00;99.90;;;;;;5019828;28;20176;-75
2022/10/17 11:08:13;;;;;;;6.90;2.10;;;18.00;99.90;;;;;;5033810;28;20508;-74
2022/10/17 11:10:58;;;;;;;4.18;1.55;;;18.00;99.90;;;;;;5035534;28;20366;-74
2022/10/17 11:13:36;;;;;;;5.85;1.77;;;18.20;99.90;;;;;;5010981;28;20045;-75
2022/10/17 11:16:33;;;;;;;1.33;0.90;;;18.30;99.90;;;;;;5025876;28;20483;-74
2022/10/17 11:19:35;;;;;;;5.05;1.30;;;18.40;99.90;;;;;;5039986;28;20128;-74
2022/10/17 11:22:11;;;;;;;4.53;1.67;;;18.50;99.90;;;;;;5024846;28;20074;-75
2022/10/17 11:25:03;;;;;;;2.97;1.30;;;18.60;99.90;;;;;;5043233;28;20132;-75
2022/10/17 11:27:30;;;;;;;3.35;1.13;;;18.70;99.90;;;;;;5030130;28;20060;-75
2022/10/17 11:29:57;;;;;;;2.78;1.27;;;18.80;99.90;;;;;;5022023;28;20144;-74
2022/10/17 11:32:44;;;;;;;3.85;1.70;;;18.90;99.90;;;;;;5027768;28;20085;-75
2022/10/17 11:35:24;;;;;;;3.80;1.48;;;19.10;99.90;;;;;;5026262;28;20060;-76
2022/10/17 11:38:21;;;;;;;3.25;1.30;;;19.10;99.90;;;;;;5021503;28;20121;-76
2022/10/17 11:40:53;;;;;;;2.90;1.17;;;19.10;99.90;;;;;;5011457;28;20385;-77
2022/10/17 11:43:27;;;;;;;2.78;1.08;;;19.20;99.90;;;;;;5021478;28;20452;-77
2022/10/17 11:46:14;;;;;;;3.30;1.40;;;19.30;99.90;;;;;;5040269;28;20049;-77
2022/10/17 11:49:19;;;;;;;3.67;1.10;;;19.30;99.90;;;;;;5025793;28;20056;-77
2022/10/17 11:51:59;;;;;;;4.65;1.60;;;19.20;99.90;;;;;;5023423;28;20098;-77
2022/10/17 11:54:36;;;;;;;3.33;1.10;;;19.10;99.90;;;;;;5020880;28;20431;-77
2022/10/17 11:57:36;;;;;;;4.80;1.60;;;19.10;99.90;;;;;;4989451;28;20057;-77
2022/10/17 12:00:42;;;;;;;4.45;2.08;;;19.00;99.90;;;;;;5033445;28;20091;-77
2022/10/17 12:03:43;;;;;;;3.85;1.33;;;19.00;99.90;;;;;;4993024;28;20153;-77
2022/10/17 12:06:26;;;;;;;3.78;1.60;;;19.00;99.90;;;;;;5041410;28;20056;-76
2022/10/17 12:09:19;;;;;;;4.30;1.30;;;18.90;99.90;;;;;;5024499;28;20092;-76
2022/10/17 12:11:57;;;;;;;3.63;1.55;;;19.00;99.90;;;;;;5021670;28;20049;-77
2022/10/17 12:14:44;;;;;;;3.78;1.67;;;19.00;99.90;;;;;;5038515;28;20436;-76
2022/10/17 12:17:31;;;;;;;5.03;1.27;;;19.10;99.90;;;;;;5008294;28;20045;-77
2022/10/17 12:20:24;;;;;;;3.10;1.40;;;19.10;99.90;;;;;;5035983;28;20049;-75
2022/10/17 12:22:55;;;;;;;4.30;1.75;;;19.00;99.90;;;;;;5042246;28;20138;-77
2022/10/17 12:25:28;;;;;;;3.72;1.15;;;19.00;99.90;;;;;;5020425;28;20049;-77
2022/10/17 12:28:09;;;;;;;2.45;1.10;;;19.00;99.90;;;;;;5020449;28;20556;-77
2022/10/17 12:30:36;;;;;;;2.50;1.20;;;19.20;99.90;;;;;;5032073;28;20492;-77
2022/10/17 12:33:21;;;;;;;2.70;1.40;;;19.50;99.90;;;;;;5019767;28;20057;-75
2022/10/17 12:35:49;;;;;;;3.53;1.52;;;19.60;99.90;;;;;;5020134;28;20057;-77
2022/10/17 12:38:16;;;;;;;4.22;1.70;;;19.70;99.90;;;;;;5025992;28;20053;-76
2022/10/17 12:40:46;;;;;;;2.38;1.00;;;19.70;99.90;;;;;;5044592;28;20063;-77
2022/10/17 12:43:14;;;;;;;5.18;1.33;;;19.80;99.90;;;;;;5037475;28;20152;-76
2022/10/17 12:45:48;;;;;;;2.10;0.88;;;19.70;99.90;;;;;;5050619;28;20049;-76
2022/10/17 12:48:33;;;;;;;2.05;1.08;;;19.90;99.90;;;;;;5044739;28;20052;-77
2022/10/17 12:51:17;;;;;;;2.85;1.10;;;20.20;99.90;;;;;;5038855;28;20046;-78
2022/10/17 12:54:13;;;;;;;2.63;0.95;;;20.40;99.90;;;;;;5015128;28;20132;-77
2022/10/17 12:56:41;;;;;;;1.90;0.90;;;20.60;99.90;;;;;;5021846;28;20085;-77
2022/10/17 12:59:22;;;;;;;1.67;0.85;;;20.50;99.90;;;;;;5056019;28;20450;-77
2022/10/17 13:01:51;;;;;;;3.90;1.48;;;20.50;99.90;;;;;;5038652;28;20059;-77
2022/10/17 13:04:17;;;;;;;2.30;1.08;;;20.60;99.90;;;;;;5019555;28;20042;-77
2022/10/17 13:06:52;;;;;;;3.38;1.42;;;20.70;99.90;;;;;;5002959;28;20221;-77
2022/10/17 13:09:30;;;;;;;2.35;1.00;;;20.70;99.90;;;;;;5007150;28;20092;-77
2022/10/17 13:11:59;;;;;;;3.33;1.15;;;21.10;99.90;;;;;;5040325;28;20127;-77
2022/10/17 13:14:25;;;;;;;2.30;1.10;;;21.10;99.90;;;;;;5019276;28;20060;-77
2022/10/17 13:16:53;;;;;;;1.90;1.00;;;21.40;99.90;;;;;;5004394;28;20060;-77